sensor_id;sensor_type;location;lat;lon;timestamp;temperature;humidity
23335;DHT22;11839;48.598;8.870;2022-12-20T00:00:51;6.90;99.90
23335;DHT22;11839;48.598;8.870;2022-12-20T00:03:19;7.10;99.90
23335;DHT22;11839;48.598;8.870;2022-12-20T00:05:46;6.90;99.90
23335;DHT22;11839;48.598;8.870;2022-12-20T00:08:13;6.50;99.90
23335;DHT22;11839;48.598;8.870;2022-12-20T00:10:43;6.40;99.90
23335;DHT22;11839;48.598;8.870;2022-12-20T00:13:11;6.60;99.90
23335;DHT22;11839;48.598;8.870;2022-12-20T00:15:38;6.70;99.90
23335;DHT22;11839;48.598;8.870;2022-12-20T00:18:05;6.40;99.90
23335;DHT22;11839;48.598;8.870;2022-12-20T00:20:32;6.50;99.90
23335;DHT22;11839;48.598;8.870;2022-12-20T00:22:59;6.50;99.90
23335;DHT22;11839;48.598;8.870;2022-12-20T00:25:25;6.60;99.90
23335;DHT22;11839;48.598;8.870;2022-12-20T00:27:53;6.60;99.90
23335;DHT22;11839;48.598;8.870;2022-12-20T00:30:20;6.70;99.90
23335;DHT22;11839;48.598;8.870;2022-12-20T00:32:47;6.80;99.90
23335;DHT22;11839;48.598;8.870;2022-12-20T00:35:14;6.80;99.90
23335;DHT22;11839;48.598;8.870;2022-12-20T00:37:41;6.80;99.90
23335;DHT22;11839;48.598;8.870;2022-12-20T00:40:08;6.90;99.90
23335;DHT22;11839;48.598;8.870;2022-12-20T00:42:35;6.80;99.90
23335;DHT22;11839;48.598;8.870;2022-12-20T00:45:04;6.90;99.90
23335;DHT22;11839;48.598;8.870;2022-12-20T00:47:31;6.90;99.90
23335;DHT22;11839;48.598;8.870;2022-12-20T00:49:58;7.00;99.90
23335;DHT22;11839;48.598;8.870;2022-12-20T00:52:24;7.00;99.90
23335;DHT22;11839;48.598;8.870;2022-12-20T00:54:51;6.90;99.90
23335;DHT22;11839;48.598;8.870;2022-12-20T00:57:18;6.80;99.90
23335;DHT22;11839;48.598;8.870;2022-12-20T00:59:45;6.70;99.90
23335;DHT22;11839;48.598;8.870;2022-12-20T01:02:13;6.90;99.90
23335;DHT22;11839;48.598;8.870;2022-12-20T01:04:40;6.70;99.90
23335;DHT22;11839;48.598;8.870;2022-12-20T01:07:06;6.70;99.90
23335;DHT22;11839;48.598;8.870;2022-12-20T01:09:33;6.90;99.90
23335;DHT22;11839;48.598;8.870;2022-12-20T01:12:00;6.70;99.90
23335;DHT22;11839;48.598;8.870;2022-12-20T01:14:27;6.30;99.90
23335;DHT22;11839;48.598;8.870;2022-12-20T01:16:54;6.10;99.90
23335;DHT22;11839;48.598;8.870;2022-12-20T01:19:22;6.30;99.90
23335;DHT22;11839;48.598;8.870;2022-12-20T01:21:49;6.50;99.90
23335;DHT22;11839;48.598;8.870;2022-12-20T01:24:17;6.50;99.90
23335;DHT22;11839;48.598;8.870;2022-12-20T01:26:45;6.40;99.90
23335;DHT22;11839;48.598;8.870;2022-12-20T01:29:12;5.90;99.90
23335;DHT22;11839;48.598;8.870;2022-12-20T01:31:40;6.00;99.90
23335;DHT22;11839;48.598;8.870;2022-12-20T01:34:06;5.80;99.90
23335;DHT22;11839;48.598;8.870;2022-12-20T01:36:36;5.90;99.90
23335;DHT22;11839;48.598;8.870;2022-12-20T01:39:05;5.80;99.90
23335;DHT22;11839;48.598;8.870;2022-12-20T01:41:35;5.90;99.90
23335;DHT22;11839;48.598;8.870;2022-12-20T01:44:04;5.80;99.90
23335;DHT22;11839;48.598;8.870;2022-12-20T01:46:34;5.80;99.90
23335;DHT22;11839;48.598;8.870;2022-12-20T01:49:05;5.70;99.90
23335;DHT22;11839;48.598;8.870;2022-12-20T01:51:41;5.90;99.90
23335;DHT22;11839;48.598;8.870;2022-12-20T01:54:11;6.20;99.90
23335;DHT22;11839;48.598;8.870;2022-12-20T01:56:42;6.10;99.90
23335;DHT22;11839;48.598;8.870;2022-12-20T01:59:12;5.90;99.90
23335;DHT22;11839;48.598;8.870;2022-12-20T02:01:40;5.40;99.90
23335;DHT22;11839;48.598;8.870;2022-12-20T02:04:07;5.20;99.90
23335;DHT22;11839;48.598;8.870;2022-12-20T02:06:35;5.10;99.90
23335;DHT22;11839;48.598;8.870;2022-12-20T02:09:03;5.00;99.90
23335;DHT22;11839;48.598;8.870;2022-12-20T02:11:45;5.00;99.90
23335;DHT22;11839;48.598;8.870;2022-12-20T02:14:22;5.20;99.90
23335;DHT22;11839;48.598;8.870;2022-12-20T02:16:56;4.80;99.90
23335;DHT22;11839;48.598;8.870;2022-12-20T02:22:42;4.80;99.90
23335;DHT22;11839;48.598;8.870;2022-12-20T02:25:37;4.90;99.90
23335;DHT22;11839;48.598;8.870;2022-12-20T02:28:20;4.90;99.90
23335;DHT22;11839;48.598;8.870;2022-12-20T02:30:55;5.50;99.90
23335;DHT22;11839;48.598;8.870;2022-12-20T02:33:24;5.30;99.90
23335;DHT22;11839;48.598;8.870;2022-12-20T02:35:53;5.50;99.90
23335;DHT22;11839;48.598;8.870;2022-12-20T02:38:26;5.50;99.90
23335;DHT22;11839;48.598;8.870;2022-12-20T02:40:56;5.60;99.90
23335;DHT22;11839;48.598;8.870;2022-12-20T02:43:26;5.70;99.90
23335;DHT22;11839;48.598;8.870;2022-12-20T02:46:25;5.70;99.90
23335;DHT22;11839;48.598;8.870;2022-12-20T02:48:55;5.70;99.90
23335;DHT22;11839;48.598;8.870;2022-12-20T02:51:22;5.60;99.90
23335;DHT22;11839;48.598;8.870;2022-12-20T02:53:52;5.50;99.90
23335;DHT22;11839;48.598;8.870;2022-12-20T02:56:22;5.50;99.90
23335;DHT22;11839;48.598;8.870;2022-12-20T02:58:55;5.30;99.90
23335;DHT22;11839;48.598;8.870;2022-12-20T03:01:28;5.20;99.90
23335;DHT22;11839;48.598;8.870;2022-12-20T03:03:57;5.40;99.90
23335;DHT22;11839;48.598;8.870;2022-12-20T03:06:24;5.50;99.90
23335;DHT22;11839;48.598;8.870;2022-12-20T03:08:51;5.60;99.90
23335;DHT22;11839;48.598;8.870;2022-12-20T03:11:18;5.60;99.90
23335;DHT22;11839;48.598;8.870;2022-12-20T03:13:45;5.60;99.90
23335;DHT22;11839;48.598;8.870;2022-12-20T03:16:12;5.60;99.90
23335;DHT22;11839;48.598;8.870;2022-12-20T03:18:41;5.60;99.90
23335;DHT22;11839;48.598;8.870;2022-12-20T03:21:09;5.60;99.90
23335;DHT22;11839;48.598;8.870;2022-12-20T03:23:36;5.70;99.90
23335;DHT22;11839;48.598;8.870;2022-12-20T03:26:03;5.40;99.90
23335;DHT22;11839;48.598;8.870;2022-12-20T03:28:30;5.10;99.90
23335;DHT22;11839;48.598;8.870;2022-12-20T03:30:57;5.30;99.90
23335;DHT22;11839;48.598;8.870;2022-12-20T03:33:24;5.40;99.90
23335;DHT22;11839;48.598;8.870;2022-12-20T03:35:52;5.20;99.90
23335;DHT22;11839;48.598;8.870;2022-12-20T03:38:19;5.30;99.90
23335;DHT22;11839;48.598;8.870;2022-12-20T03:40:45;5.50;99.90
23335;DHT22;11839;48.598;8.870;2022-12-20T03:43:12;5.80;99.90
23335;DHT22;11839;48.598;8.870;2022-12-20T03:45:39;5.90;99.90
23335;DHT22;11839;48.598;8.870;2022-12-20T03:48:06;6.00;99.90
23335;DHT22;11839;48.598;8.870;2022-12-20T03:50:33;5.90;99.90
23335;DHT22;11839;48.598;8.870;2022-12-20T03:53:02;6.10;99.90
23335;DHT22;11839;48.598;8.870;2022-12-20T03:55:29;6.10;99.90
23335;DHT22;11839;48.598;8.870;2022-12-20T03:57:56;6.30;99.90
23335;DHT22;11839;48.598;8.870;2022-12-20T04:00:23;6.20;99.90
23335;DHT22;11839;48.598;8.870;2022-12-20T04:02:50;6.20;99.90
23335;DHT22;11839;48.598;8.870;2022-12-20T04:05:17;6.20;99.90
23335;DHT22;11839;48.598;8.870;2022-12-20T04:07:45;6.30;99.90
23335;DHT22;11839;48.598;8.870;2022-12-20T04:10:13;6.10;99.90
23335;DHT22;11839;48.598;8.870;2022-12-20T04:12:40;6.40;99.90
23335;DHT22;11839;48.598;8.870;2022-12-20T04:15:07;6.60;99.90
23335;DHT22;11839;48.598;8.870;2022-12-20T04:17:34;6.40;99.90
23335;DHT22;11839;48.598;8.870;2022-12-20T04:20:01;6.30;99.90
23335;DHT22;11839;48.598;8.870;2022-12-20T04:22:43;6.40;99.90
23335;DHT22;11839;48.598;8.870;2022-12-20T04:25:10;6.50;99.90
23335;DHT22;11839;48.598;8.870;2022-12-20T04:27:38;6.70;99.90
23335;DHT22;11839;48.598;8.870;2022-12-20T04:30:06;6.60;99.90
23335;DHT22;11839;48.598;8.870;2022-12-20T04:32:33;6.60;99.90
23335;DHT22;11839;48.598;8.870;2022-12-20T04:35:00;6.70;99.90
23335;DHT22;11839;48.598;8.870;2022-12-20T04:37:28;6.90;99.90
23335;DHT22;11839;48.598;8.870;2022-12-20T04:39:55;6.90;99.90
23335;DHT22;11839;48.598;8.870;2022-12-20T04:42:24;7.10;99.90
23335;DHT22;11839;48.598;8.870;2022-12-20T04:44:52;7.00;99.90
23335;DHT22;11839;48.598;8.870;2022-12-20T04:47:19;7.00;99.90
23335;DHT22;11839;48.598;8.870;2022-12-20T04:49:45;7.00;99.90
23335;DHT22;11839;48.598;8.870;2022-12-20T04:52:12;6.70;99.90
23335;DHT22;11839;48.598;8.870;2022-12-20T04:54:57;6.80;99.90
23335;DHT22;11839;48.598;8.870;2022-12-20T04:57:23;6.70;99.90
23335;DHT22;11839;48.598;8.870;2022-12-20T04:59:51;7.00;99.90
23335;DHT22;11839;48.598;8.870;2022-12-20T05:02:18;7.20;99.90
23335;DHT22;11839;48.598;8.870;2022-12-20T05:04:45;7.30;99.90
23335;DHT22;11839;48.598;8.870;2022-12-20T05:07:12;7.30;99.90
23335;DHT22;11839;48.598;8.870;2022-12-20T05:09:39;7.50;99.90
23335;DHT22;11839;48.598;8.870;2022-12-20T05:12:06;7.30;99.90
23335;DHT22;11839;48.598;8.870;2022-12-20T05:14:33;7.30;99.90
23335;DHT22;11839;48.598;8.870;2022-12-20T05:17:01;7.20;99.90
23335;DHT22;11839;48.598;8.870;2022-12-20T05:19:28;7.20;99.90
23335;DHT22;11839;48.598;8.870;2022-12-20T05:21:54;7.30;99.90
23335;DHT22;11839;48.598;8.870;2022-12-20T05:24:39;7.10;99.90
23335;DHT22;11839;48.598;8.870;2022-12-20T05:27:23;6.90;99.90
23335;DHT22;11839;48.598;8.870;2022-12-20T05:29:49;6.60;99.90
23335;DHT22;11839;48.598;8.870;2022-12-20T05:32:18;6.70;99.90
23335;DHT22;11839;48.598;8.870;2022-12-20T05:34:44;6.60;99.90
23335;DHT22;11839;48.598;8.870;2022-12-20T05:37:11;6.30;99.90
23335;DHT22;11839;48.598;8.870;2022-12-20T05:39:38;6.60;99.90
23335;DHT22;11839;48.598;8.870;2022-12-20T05:42:05;6.60;99.90
23335;DHT22;11839;48.598;8.870;2022-12-20T05:44:32;6.70;99.90
23335;DHT22;11839;48.598;8.870;2022-12-20T05:46:59;6.80;99.90
23335;DHT22;11839;48.598;8.870;2022-12-20T05:49:27;6.90;99.90
23335;DHT22;11839;48.598;8.870;2022-12-20T05:51:54;6.70;99.90
23335;DHT22;11839;48.598;8.870;2022-12-20T05:54:21;6.70;99.90
23335;DHT22;11839;48.598;8.870;2022-12-20T05:56:49;6.80;99.90
23335;DHT22;11839;48.598;8.870;2022-12-20T05:59:16;6.70;99.90
23335;DHT22;11839;48.598;8.870;2022-12-20T06:01:43;6.80;99.90
23335;DHT22;11839;48.598;8.870;2022-12-20T06:04:10;6.70;99.90
23335;DHT22;11839;48.598;8.870;2022-12-20T06:06:38;6.70;99.90
23335;DHT22;11839;48.598;8.870;2022-12-20T06:09:05;7.00;99.90
23335;DHT22;11839;48.598;8.870;2022-12-20T06:11:31;7.00;99.90
23335;DHT22;11839;48.598;8.870;2022-12-20T06:13:58;7.10;99.90
23335;DHT22;11839;48.598;8.870;2022-12-20T06:16:25;7.10;99.90
23335;DHT22;11839;48.598;8.870;2022-12-20T06:18:52;7.00;99.90
23335;DHT22;11839;48.598;8.870;2022-12-20T06:21:18;7.10;99.90
23335;DHT22;11839;48.598;8.870;2022-12-20T06:23:47;7.20;99.90
23335;DHT22;11839;48.598;8.870;2022-12-20T06:26:14;7.30;99.90
23335;DHT22;11839;48.598;8.870;2022-12-20T06:28:41;7.40;99.90
23335;DHT22;11839;48.598;8.870;2022-12-20T06:31:09;7.60;99.90
23335;DHT22;11839;48.598;8.870;2022-12-20T06:33:36;7.70;99.90
23335;DHT22;11839;48.598;8.870;2022-12-20T06:36:03;7.50;99.90
23335;DHT22;11839;48.598;8.870;2022-12-20T06:38:30;7.70;99.90
23335;DHT22;11839;48.598;8.870;2022-12-20T06:40:58;7.90;99.90
23335;DHT22;11839;48.598;8.870;2022-12-20T06:43:25;8.00;99.90
23335;DHT22;11839;48.598;8.870;2022-12-20T06:45:52;7.90;99.90
23335;DHT22;11839;48.598;8.870;2022-12-20T06:48:19;7.90;99.90
23335;DHT22;11839;48.598;8.870;2022-12-20T06:50:47;8.00;99.90
23335;DHT22;11839;48.598;8.870;2022-12-20T06:53:14;8.10;99.90
23335;DHT22;11839;48.598;8.870;2022-12-20T06:55:41;8.20;99.90
23335;DHT22;11839;48.598;8.870;2022-12-20T06:58:09;8.30;99.90
23335;DHT22;11839;48.598;8.870;2022-12-20T07:00:36;8.20;99.90
23335;DHT22;11839;48.598;8.870;2022-12-20T07:03:03;8.30;99.90
23335;DHT22;11839;48.598;8.870;2022-12-20T07:05:30;8.10;99.90
23335;DHT22;11839;48.598;8.870;2022-12-20T07:07:57;8.00;99.90
23335;DHT22;11839;48.598;8.870;2022-12-20T07:10:24;8.00;99.90
23335;DHT22;11839;48.598;8.870;2022-12-20T07:12:51;8.00;99.90
23335;DHT22;11839;48.598;8.870;2022-12-20T07:15:19;8.10;99.90
23335;DHT22;11839;48.598;8.870;2022-12-20T07:17:47;8.30;99.90
23335;DHT22;11839;48.598;8.870;2022-12-20T07:20:14;8.20;99.90
23335;DHT22;11839;48.598;8.870;2022-12-20T07:22:42;8.10;99.90
23335;DHT22;11839;48.598;8.870;2022-12-20T07:25:08;8.30;99.90
23335;DHT22;11839;48.598;8.870;2022-12-20T07:27:36;8.30;99.90
23335;DHT22;11839;48.598;8.870;2022-12-20T07:30:03;8.20;99.90
23335;DHT22;11839;48.598;8.870;2022-12-20T07:32:32;8.30;99.90
23335;DHT22;11839;48.598;8.870;2022-12-20T07:34:58;8.30;99.90
23335;DHT22;11839;48.598;8.870;2022-12-20T07:37:27;8.30;99.90
23335;DHT22;11839;48.598;8.870;2022-12-20T07:39:54;8.50;99.90
23335;DHT22;11839;48.598;8.870;2022-12-20T07:42:21;8.50;99.90
23335;DHT22;11839;48.598;8.870;2022-12-20T07:44:48;8.50;99.90
23335;DHT22;11839;48.598;8.870;2022-12-20T07:47:15;8.50;99.90
23335;DHT22;11839;48.598;8.870;2022-12-20T07:49:43;8.50;99.90
23335;DHT22;11839;48.598;8.870;2022-12-20T07:52:11;8.30;99.90
23335;DHT22;11839;48.598;8.870;2022-12-20T07:54:42;8.10;99.90
23335;DHT22;11839;48.598;8.870;2022-12-20T07:57:16;8.20;99.90
23335;DHT22;11839;48.598;8.870;2022-12-20T07:59:49;8.20;99.90
23335;DHT22;11839;48.598;8.870;2022-12-20T08:02:18;8.10;99.90
23335;DHT22;11839;48.598;8.870;2022-12-20T08:04:48;8.30;99.90
23335;DHT22;11839;48.598;8.870;2022-12-20T08:07:15;8.40;99.90
23335;DHT22;11839;48.598;8.870;2022-12-20T08:09:43;8.30;99.90
23335;DHT22;11839;48.598;8.870;2022-12-20T08:12:13;8.10;99.90
23335;DHT22;11839;48.598;8.870;2022-12-20T08:14:41;8.00;99.90
23335;DHT22;11839;48.598;8.870;2022-12-20T08:17:08;8.10;99.90
23335;DHT22;11839;48.598;8.870;2022-12-20T08:19:35;8.40;99.90
23335;DHT22;11839;48.598;8.870;2022-12-20T08:22:04;8.40;99.90
23335;DHT22;11839;48.598;8.870;2022-12-20T08:24:32;8.50;99.90
23335;DHT22;11839;48.598;8.870;2022-12-20T08:27:00;8.40;99.90
23335;DHT22;11839;48.598;8.870;2022-12-20T08:29:27;8.60;99.90
23335;DHT22;11839;48.598;8.870;2022-12-20T08:31:54;8.60;99.90
23335;DHT22;11839;48.598;8.870;2022-12-20T08:34:20;8.40;99.90
23335;DHT22;11839;48.598;8.870;2022-12-20T08:36:47;8.60;99.90
23335;DHT22;11839;48.598;8.870;2022-12-20T08:39:15;8.70;99.90
23335;DHT22;11839;48.598;8.870;2022-12-20T08:41:42;8.80;99.90
23335;DHT22;11839;48.598;8.870;2022-12-20T08:44:09;8.80;99.90
23335;DHT22;11839;48.598;8.870;2022-12-20T08:46:36;8.80;99.90
23335;DHT22;11839;48.598;8.870;2022-12-20T08:49:02;8.90;99.90
23335;DHT22;11839;48.598;8.870;2022-12-20T08:51:29;8.90;99.90
23335;DHT22;11839;48.598;8.870;2022-12-20T08:53:56;8.80;99.90
23335;DHT22;11839;48.598;8.870;2022-12-20T08:56:24;8.80;99.90
23335;DHT22;11839;48.598;8.870;2022-12-20T08:58:51;8.80;99.90
23335;DHT22;11839;48.598;8.870;2022-12-20T09:01:19;9.00;99.90
23335;DHT22;11839;48.598;8.870;2022-12-20T09:03:47;8.90;99.90
23335;DHT22;11839;48.598;8.870;2022-12-20T09:06:16;8.90;99.90
23335;DHT22;11839;48.598;8.870;2022-12-20T09:08:43;9.00;99.90
23335;DHT22;11839;48.598;8.870;2022-12-20T09:11:12;8.90;99.90
23335;DHT22;11839;48.598;8.870;2022-12-20T09:13:41;8.80;99.90
23335;DHT22;11839;48.598;8.870;2022-12-20T09:16:09;8.90;99.90
23335;DHT22;11839;48.598;8.870;2022-12-20T09:18:36;9.20;99.90
23335;DHT22;11839;48.598;8.870;2022-12-20T09:21:05;9.30;99.90
23335;DHT22;11839;48.598;8.870;2022-12-20T09:23:34;9.20;99.90
23335;DHT22;11839;48.598;8.870;2022-12-20T09:26:01;9.30;99.90
23335;DHT22;11839;48.598;8.870;2022-12-20T09:28:29;9.60;99.90
23335;DHT22;11839;48.598;8.870;2022-12-20T09:30:58;9.70;99.90
23335;DHT22;11839;48.598;8.870;2022-12-20T09:33:26;9.70;99.90
23335;DHT22;11839;48.598;8.870;2022-12-20T09:35:53;9.90;99.90
23335;DHT22;11839;48.598;8.870;2022-12-20T09:38:20;10.10;99.90
23335;DHT22;11839;48.598;8.870;2022-12-20T09:40:49;10.10;99.90
23335;DHT22;11839;48.598;8.870;2022-12-20T09:43:16;10.00;99.90
23335;DHT22;11839;48.598;8.870;2022-12-20T09:45:46;10.20;99.90
23335;DHT22;11839;48.598;8.870;2022-12-20T09:48:17;10.30;99.90
23335;DHT22;11839;48.598;8.870;2022-12-20T09:50:53;10.50;99.90
23335;DHT22;11839;48.598;8.870;2022-12-20T09:53:29;10.50;99.90
23335;DHT22;11839;48.598;8.870;2022-12-20T09:56:02;10.60;99.90
23335;DHT22;11839;48.598;8.870;2022-12-20T09:58:44;10.40;99.90
23335;DHT22;11839;48.598;8.870;2022-12-20T10:01:19;10.30;99.90
23335;DHT22;11839;48.598;8.870;2022-12-20T10:03:48;10.30;99.90
23335;DHT22;11839;48.598;8.870;2022-12-20T10:06:21;10.10;99.90
23335;DHT22;11839;48.598;8.870;2022-12-20T10:08:54;10.10;99.90
23335;DHT22;11839;48.598;8.870;2022-12-20T10:11:48;10.10;99.90
23335;DHT22;11839;48.598;8.870;2022-12-20T10:14:29;10.10;99.90
23335;DHT22;11839;48.598;8.870;2022-12-20T10:17:04;10.00;99.90
23335;DHT22;11839;48.598;8.870;2022-12-20T10:20:02;9.70;99.90
23335;DHT22;11839;48.598;8.870;2022-12-20T10:22:36;10.00;99.90
23335;DHT22;11839;48.598;8.870;2022-12-20T10:25:14;9.80;99.90
23335;DHT22;11839;48.598;8.870;2022-12-20T10:27:43;9.70;99.90
23335;DHT22;11839;48.598;8.870;2022-12-20T10:30:12;9.70;99.90
23335;DHT22;11839;48.598;8.870;2022-12-20T10:32:42;9.70;99.90
23335;DHT22;11839;48.598;8.870;2022-12-20T10:35:24;9.90;99.90
23335;DHT22;11839;48.598;8.870;2022-12-20T10:37:57;9.80;99.90
23335;DHT22;11839;48.598;8.870;2022-12-20T10:40:27;9.70;99.90
23335;DHT22;11839;48.598;8.870;2022-12-20T10:42:55;9.50;99.90
23335;DHT22;11839;48.598;8.870;2022-12-20T10:45:43;9.20;99.90
23335;DHT22;11839;48.598;8.870;2022-12-20T10:48:27;9.60;99.90
23335;DHT22;11839;48.598;8.870;2022-12-20T10:50:59;9.90;99.90
23335;DHT22;11839;48.598;8.870;2022-12-20T10:53:27;10.10;99.90
23335;DHT22;11839;48.598;8.870;2022-12-20T10:56:15;10.30;99.90
23335;DHT22;11839;48.598;8.870;2022-12-20T10:58:51;10.40;99.90
23335;DHT22;11839;48.598;8.870;2022-12-20T11:01:27;10.70;99.90
23335;DHT22;11839;48.598;8.870;2022-12-20T11:03:58;10.80;99.90
23335;DHT22;11839;48.598;8.870;2022-12-20T11:06:29;10.70;99.90
23335;DHT22;11839;48.598;8.870;2022-12-20T11:09:25;10.40;99.90
23335;DHT22;11839;48.598;8.870;2022-12-20T11:12:13;10.40;99.90
23335;DHT22;11839;48.598;8.870;2022-12-20T11:14:42;10.60;99.90
23335;DHT22;11839;48.598;8.870;2022-12-20T11:17:21;10.40;99.90
23335;DHT22;11839;48.598;8.870;2022-12-20T11:20:10;10.40;99.90
23335;DHT22;11839;48.598;8.870;2022-12-20T11:22:52;10.30;99.90
23335;DHT22;11839;48.598;8.870;2022-12-20T11:25:35;10.50;99.90
23335;DHT22;11839;48.598;8.870;2022-12-20T11:28:18;10.70;99.90
23335;DHT22;11839;48.598;8.870;2022-12-20T11:30:53;10.60;99.90
23335;DHT22;11839;48.598;8.870;2022-12-20T11:36:30;10.40;99.90
23335;DHT22;11839;48.598;8.870;2022-12-20T11:39:06;10.30;99.90
23335;DHT22;11839;48.598;8.870;2022-12-20T11:41:44;10.30;99.90
23335;DHT22;11839;48.598;8.870;2022-12-20T11:44:21;10.10;99.90
23335;DHT22;11839;48.598;8.870;2022-12-20T11:47:00;10.20;99.90
23335;DHT22;11839;48.598;8.870;2022-12-20T11:49:52;10.20;99.90
23335;DHT22;11839;48.598;8.870;2022-12-20T11:52:32;10.20;99.90
23335;DHT22;11839;48.598;8.870;2022-12-20T11:55:06;10.60;99.90
23335;DHT22;11839;48.598;8.870;2022-12-20T11:57:37;10.50;99.90
23335;DHT22;11839;48.598;8.870;2022-12-20T12:00:12;10.50;99.90
23335;DHT22;11839;48.598;8.870;2022-12-20T12:02:44;10.40;99.90
23335;DHT22;11839;48.598;8.870;2022-12-20T12:05:17;10.50;99.90
23335;DHT22;11839;48.598;8.870;2022-12-20T12:07:49;10.60;99.90
23335;DHT22;11839;48.598;8.870;2022-12-20T12:10:22;10.60;99.90
23335;DHT22;11839;48.598;8.870;2022-12-20T12:13:02;10.50;99.90
23335;DHT22;11839;48.598;8.870;2022-12-20T12:15:33;10.40;99.90
23335;DHT22;11839;48.598;8.870;2022-12-20T12:18:05;10.50;99.90
23335;DHT22;11839;48.598;8.870;2022-12-20T12:20:39;10.40;99.90
23335;DHT22;11839;48.598;8.870;2022-12-20T12:23:17;10.40;99.90
23335;DHT22;11839;48.598;8.870;2022-12-20T12:25:48;10.20;99.90
23335;DHT22;11839;48.598;8.870;2022-12-20T12:28:18;10.10;99.90
23335;DHT22;11839;48.598;8.870;2022-12-20T12:30:49;10.00;99.90
23335;DHT22;11839;48.598;8.870;2022-12-20T12:33:22;10.10;99.90
23335;DHT22;11839;48.598;8.870;2022-12-20T12:36:12;10.00;99.90
23335;DHT22;11839;48.598;8.870;2022-12-20T12:39:12;9.80;99.90
23335;DHT22;11839;48.598;8.870;2022-12-20T12:42:03;9.90;99.90
23335;DHT22;11839;48.598;8.870;2022-12-20T12:44:39;9.80;99.90
23335;DHT22;11839;48.598;8.870;2022-12-20T12:47:12;9.80;99.90
23335;DHT22;11839;48.598;8.870;2022-12-20T12:49:40;9.80;99.90
23335;DHT22;11839;48.598;8.870;2022-12-20T12:52:36;9.70;99.90
23335;DHT22;11839;48.598;8.870;2022-12-20T12:55:34;9.70;99.90
23335;DHT22;11839;48.598;8.870;2022-12-20T12:58:21;10.10;99.90
23335;DHT22;11839;48.598;8.870;2022-12-20T13:00:56;10.00;99.90
23335;DHT22;11839;48.598;8.870;2022-12-20T13:03:45;10.10;99.90
23335;DHT22;11839;48.598;8.870;2022-12-20T13:07:22;10.10;99.90
23335;DHT22;11839;48.598;8.870;2022-12-20T13:09:50;10.20;99.90
23335;DHT22;11839;48.598;8.870;2022-12-20T13:15:45;9.70;99.90
23335;DHT22;11839;48.598;8.870;2022-12-20T13:18:25;9.60;99.90
23335;DHT22;11839;48.598;8.870;2022-12-20T13:27:21;9.50;99.90
23335;DHT22;11839;48.598;8.870;2022-12-20T13:30:24;9.70;99.90
23335;DHT22;11839;48.598;8.870;2022-12-20T13:33:16;9.90;99.90
23335;DHT22;11839;48.598;8.870;2022-12-20T13:35:56;10.00;99.90
23335;DHT22;11839;48.598;8.870;2022-12-20T13:41:32;10.00;99.90
23335;DHT22;11839;48.598;8.870;2022-12-20T13:44:20;10.20;99.90
23335;DHT22;11839;48.598;8.870;2022-12-20T13:46:53;10.20;99.90
23335;DHT22;11839;48.598;8.870;2022-12-20T13:49:24;10.40;99.90
23335;DHT22;11839;48.598;8.870;2022-12-20T13:52:16;10.20;99.90
23335;DHT22;11839;48.598;8.870;2022-12-20T13:54:47;9.90;99.90
23335;DHT22;11839;48.598;8.870;2022-12-20T13:57:16;9.60;99.90
23335;DHT22;11839;48.598;8.870;2022-12-20T13:59:46;9.40;99.90
23335;DHT22;11839;48.598;8.870;2022-12-20T14:02:19;9.50;99.90
23335;DHT22;11839;48.598;8.870;2022-12-20T14:04:59;9.50;99.90
23335;DHT22;11839;48.598;8.870;2022-12-20T14:07:28;9.50;99.90
23335;DHT22;11839;48.598;8.870;2022-12-20T14:09:58;9.80;99.90
23335;DHT22;11839;48.598;8.870;2022-12-20T14:12:26;9.80;99.90
23335;DHT22;11839;48.598;8.870;2022-12-20T14:14:54;9.70;99.90
23335;DHT22;11839;48.598;8.870;2022-12-20T14:17:24;9.80;99.90
23335;DHT22;11839;48.598;8.870;2022-12-20T14:20:06;10.00;99.90
23335;DHT22;11839;48.598;8.870;2022-12-20T14:22:40;10.30;99.90
23335;DHT22;11839;48.598;8.870;2022-12-20T14:25:08;10.40;99.90
23335;DHT22;11839;48.598;8.870;2022-12-20T14:27:38;10.70;99.90
23335;DHT22;11839;48.598;8.870;2022-12-20T14:30:30;10.70;99.90
23335;DHT22;11839;48.598;8.870;2022-12-20T14:32:57;10.60;99.90
23335;DHT22;11839;48.598;8.870;2022-12-20T14:35:25;10.20;99.90
23335;DHT22;11839;48.598;8.870;2022-12-20T14:37:55;10.00;99.90
23335;DHT22;11839;48.598;8.870;2022-12-20T14:40:22;9.90;99.90
23335;DHT22;11839;48.598;8.870;2022-12-20T14:42:49;10.10;99.90
23335;DHT22;11839;48.598;8.870;2022-12-20T14:45:24;10.10;99.90
23335;DHT22;11839;48.598;8.870;2022-12-20T14:47:59;10.30;99.90
23335;DHT22;11839;48.598;8.870;2022-12-20T14:50:30;10.60;99.90
23335;DHT22;11839;48.598;8.870;2022-12-20T14:52:58;10.70;99.90
23335;DHT22;11839;48.598;8.870;2022-12-20T14:55:31;10.60;99.90
23335;DHT22;11839;48.598;8.870;2022-12-20T14:57:59;10.60;99.90
23335;DHT22;11839;48.598;8.870;2022-12-20T15:00:29;10.60;99.90
23335;DHT22;11839;48.598;8.870;2022-12-20T15:03:02;10.10;99.90
23335;DHT22;11839;48.598;8.870;2022-12-20T15:05:41;10.10;99.90
23335;DHT22;11839;48.598;8.870;2022-12-20T15:08:11;10.10;99.90
23335;DHT22;11839;48.598;8.870;2022-12-20T15:10:38;10.00;99.90
23335;DHT22;11839;48.598;8.870;2022-12-20T15:13:11;9.80;99.90
23335;DHT22;11839;48.598;8.870;2022-12-20T15:15:40;9.80;99.90
23335;DHT22;11839;48.598;8.870;2022-12-20T15:18:13;9.70;99.90
23335;DHT22;11839;48.598;8.870;2022-12-20T15:20:40;9.40;99.90
23335;DHT22;11839;48.598;8.870;2022-12-20T15:23:13;8.90;99.90
23335;DHT22;11839;48.598;8.870;2022-12-20T15:25:41;9.00;99.90
23335;DHT22;11839;48.598;8.870;2022-12-20T15:28:12;9.20;99.90
23335;DHT22;11839;48.598;8.870;2022-12-20T15:30:41;9.50;99.90
23335;DHT22;11839;48.598;8.870;2022-12-20T15:33:16;9.80;99.90
23335;DHT22;11839;48.598;8.870;2022-12-20T15:35:45;9.70;99.90
23335;DHT22;11839;48.598;8.870;2022-12-20T15:38:14;9.80;99.90
23335;DHT22;11839;48.598;8.870;2022-12-20T15:40:43;9.50;99.90
23335;DHT22;11839;48.598;8.870;2022-12-20T15:43:13;9.40;99.90
23335;DHT22;11839;48.598;8.870;2022-12-20T15:45:43;9.30;99.90
23335;DHT22;11839;48.598;8.870;2022-12-20T15:48:15;9.30;99.90
23335;DHT22;11839;48.598;8.870;2022-12-20T15:50:47;9.70;99.90
23335;DHT22;11839;48.598;8.870;2022-12-20T15:53:17;9.90;99.90
23335;DHT22;11839;48.598;8.870;2022-12-20T15:55:51;9.80;99.90
23335;DHT22;11839;48.598;8.870;2022-12-20T15:58:18;10.00;99.90
23335;DHT22;11839;48.598;8.870;2022-12-20T16:00:46;10.10;99.90
23335;DHT22;11839;48.598;8.870;2022-12-20T16:03:15;10.20;99.90
23335;DHT22;11839;48.598;8.870;2022-12-20T16:05:42;10.00;99.90
23335;DHT22;11839;48.598;8.870;2022-12-20T16:08:09;9.80;99.90
23335;DHT22;11839;48.598;8.870;2022-12-20T16:10:36;9.60;99.90
23335;DHT22;11839;48.598;8.870;2022-12-20T16:13:03;9.60;99.90
23335;DHT22;11839;48.598;8.870;2022-12-20T16:15:32;9.80;99.90
23335;DHT22;11839;48.598;8.870;2022-12-20T16:18:00;9.70;99.90
23335;DHT22;11839;48.598;8.870;2022-12-20T16:20:27;9.60;99.90
23335;DHT22;11839;48.598;8.870;2022-12-20T16:22:54;9.70;99.90
23335;DHT22;11839;48.598;8.870;2022-12-20T16:25:27;9.60;99.90